Brad Bennink — WDD4338 — position and weather

sailwx.info

Track history (hours):
 
Tides and Currents Weather Stations Pressure Air Temp Water Temp Dewpoint Dewpoint Depression Visibility Wind Speed Wind Dir Waves Ship Positions

Brad Bennink

Owner: American Commercial Lines LLC, Jeffersonville, IN. More information available from US FCC via Universal Licensing System and Coast Guard Vessel Documentation Center.

Last reported at 2018-May-13 13:31 UTC. Time now 2018-Jun-23 10:11 UTC.
Position N 39°11' W 090°36'.
Warning: this ship's position is 40 days out of date.

Length 39 m; draft 2.9 m.

Type: Towing. MMSI: 367143450.

Date/timePositionNaut miles runAvg speedWind from/ knotsBaromVisibWave heightAir tempDewpointWater temp
2018-May-13 13:31N 39°11' W 090°36'0 3.7
2018-May-13 13:31N 39°11' W 090°36'2 4.2
2018-May-13 13:01N 39°09' W 090°37'2 4.2
2018-May-13 12:30N 39°07' W 090°36'1 2.8
2018-May-13 12:01N 39°06' W 090°36'1 1.2
2018-May-13 11:31N 39°05' W 090°35'2 3.9
2018-May-13 11:01N 39°03' W 090°35'2 4.2
2018-May-13 10:29N 39°01' W 090°35'2 4.5
2018-May-13 10:01N 38°59' W 090°34'2 4.6
2018-May-13 09:31N 38°57' W 090°32'2 4.3
2018-May-13 09:01N 38°58' W 090°29'2 4.5
2018-May-13 08:31N 38°58' W 090°26'2 3.6
2018-May-13 08:01N 38°58' W 090°24'2 4.1
2018-May-13 07:31N 38°57' W 090°21'2 4.8
2018-May-13 07:00N 38°55' W 090°19'2 4.6
2018-May-13 06:31N 38°55' W 090°16'2 4.5
2018-May-13 06:01N 38°55' W 090°13'2 4.0
2018-May-13 05:30N 38°53' W 090°11'2 4.0
2018-May-13 05:01N 38°52' W 090°09'0 0.9
2018-May-13 04:31N 38°52' W 090°09'2 3.5
2018-May-13 04:01N 38°51' W 090°07'2 3.8
2018-May-13 03:30N 38°49' W 090°07'3 5.1
2018-May-13 02:49N 38°46' W 090°08'1 1.9
2018-May-13 02:27N 38°45' W 090°09'5 2.9
2018-May-13 00:50N 38°41' W 090°11'2 4.8
2018-May-13 00:29N 38°39' W 090°11'  
2018-May-08 13:12N 38°39' W 090°11'2 9.1
2018-May-08 13:00N 38°41' W 090°11'1 2.9
2018-May-08 12:31N 38°42' W 090°11'1 1.6
2018-May-08 11:40N 38°43' W 090°10'0 1.3
2018-May-08 11:30N 38°44' W 090°10'1 1.2
2018-May-08 11:00N 38°44' W 090°10'0 0.6
2018-May-08 10:30N 38°44' W 090°09'2 3.2
2018-May-08 09:59N 38°46' W 090°08'2 3.6
2018-May-08 09:28N 38°47' W 090°07'3 7.1
2018-May-08 09:01N 38°51' W 090°06'3 5.1
2018-May-08 08:31N 38°52' W 090°09'0 0.5
2018-May-08 08:01N 38°52' W 090°09'2 3.7
2018-May-08 07:31N 38°53' W 090°11'3 5.5
2018-May-08 07:01N 38°55' W 090°14'1 1.1
2018-May-08 06:30N 38°55' W 090°15'0 0.1
2018-May-08 06:00N 38°55' W 090°15'2 4.9
2018-May-08 05:31N 38°55' W 090°18'3 6.9
2018-May-08 05:00N 38°57' W 090°22'4 7.3
2018-May-08 04:31N 38°58' W 090°26'3 5.5
2018-May-08 04:00N 38°58' W 090°30'2 4.3
2018-May-08 03:30N 38°58' W 090°33'3 5.3
2018-May-08 03:00N 39°00' W 090°34'3 5.1
2018-May-08 02:26N 39°03' W 090°35'3 4.7
2018-May-08 01:47N 39°06' W 090°36'2 5.1
2018-May-08 01:30N 39°07' W 090°36'3 5.2
2018-May-08 00:56N 39°10' W 090°37'  
Track history (hours):
 
Tides and Currents Weather Stations Pressure Air Temp Water Temp Dewpoint Dewpoint Depression Visibility Wind Speed Wind Dir Waves Ship Positions

Brad Bennink

Owner: American Commercial Lines LLC, Jeffersonville, IN. More information available from US FCC via Universal Licensing System and Coast Guard Vessel Documentation Center.

Last reported at 2018-May-13 13:31 UTC. Time now 2018-Jun-23 10:11 UTC.
Position N 39°11' W 090°36'.
Warning: this ship's position is 40 days out of date.

Length 39 m; draft 2.9 m.

Type: Towing. MMSI: 367143450.

Date/timePositionNaut miles runAvg speedWind from/ knotsBaromVisibWave heightAir tempDewpointWater temp
2018-May-13 13:31N 39°11' W 090°36'0 3.7
2018-May-13 13:31N 39°11' W 090°36'2 4.2
2018-May-13 13:01N 39°09' W 090°37'2 4.2
2018-May-13 12:30N 39°07' W 090°36'1 2.8
2018-May-13 12:01N 39°06' W 090°36'1 1.2
2018-May-13 11:31N 39°05' W 090°35'2 3.9
2018-May-13 11:01N 39°03' W 090°35'2 4.2
2018-May-13 10:29N 39°01' W 090°35'2 4.5
2018-May-13 10:01N 38°59' W 090°34'2 4.6
2018-May-13 09:31N 38°57' W 090°32'2 4.3
2018-May-13 09:01N 38°58' W 090°29'2 4.5
2018-May-13 08:31N 38°58' W 090°26'2 3.6
2018-May-13 08:01N 38°58' W 090°24'2 4.1
2018-May-13 07:31N 38°57' W 090°21'2 4.8
2018-May-13 07:00N 38°55' W 090°19'2 4.6
2018-May-13 06:31N 38°55' W 090°16'2 4.5
2018-May-13 06:01N 38°55' W 090°13'2 4.0
2018-May-13 05:30N 38°53' W 090°11'2 4.0
2018-May-13 05:01N 38°52' W 090°09'0 0.9
2018-May-13 04:31N 38°52' W 090°09'2 3.5
2018-May-13 04:01N 38°51' W 090°07'2 3.8
2018-May-13 03:30N 38°49' W 090°07'3 5.1
2018-May-13 02:49N 38°46' W 090°08'1 1.9
2018-May-13 02:27N 38°45' W 090°09'5 2.9
2018-May-13 00:50N 38°41' W 090°11'2 4.8
2018-May-13 00:29N 38°39' W 090°11'  
2018-May-08 13:12N 38°39' W 090°11'2 9.1
2018-May-08 13:00N 38°41' W 090°11'1 2.9
2018-May-08 12:31N 38°42' W 090°11'1 1.6
2018-May-08 11:40N 38°43' W 090°10'0 1.3
2018-May-08 11:30N 38°44' W 090°10'1 1.2
2018-May-08 11:00N 38°44' W 090°10'0 0.6
2018-May-08 10:30N 38°44' W 090°09'2 3.2
2018-May-08 09:59N 38°46' W 090°08'2 3.6
2018-May-08 09:28N 38°47' W 090°07'3 7.1
2018-May-08 09:01N 38°51' W 090°06'3 5.1
2018-May-08 08:31N 38°52' W 090°09'0 0.5
2018-May-08 08:01N 38°52' W 090°09'2 3.7
2018-May-08 07:31N 38°53' W 090°11'3 5.5
2018-May-08 07:01N 38°55' W 090°14'1 1.1
2018-May-08 06:30N 38°55' W 090°15'0 0.1
2018-May-08 06:00N 38°55' W 090°15'2 4.9
2018-May-08 05:31N 38°55' W 090°18'3 6.9
2018-May-08 05:00N 38°57' W 090°22'4 7.3
2018-May-08 04:31N 38°58' W 090°26'3 5.5
2018-May-08 04:00N 38°58' W 090°30'2 4.3
2018-May-08 03:30N 38°58' W 090°33'3 5.3
2018-May-08 03:00N 39°00' W 090°34'3 5.1
2018-May-08 02:26N 39°03' W 090°35'3 4.7
2018-May-08 01:47N 39°06' W 090°36'2 5.1
2018-May-08 01:30N 39°07' W 090°36'3 5.2
2018-May-08 00:56N 39°10' W 090°37'  

Dump ship's entire track history